Time;durP1;ratioP1;P1;durP2;ratioP2;P2;SDS_P1;SDS_P2;PMS_P1;PMS_P2;Temp;Humidity;BMP_temperature;BMP_pressure;BME280_temperature;BME280_humidity;BME280_pressure;Samples;Min_cycle;Max_cycle;Signal;HPM_P1;HPM_P2
2021/05/10 00:00:18;;;;;;;;;;;;;;;;;;5092598;28;19947;-66
2021/05/10 00:02:43;;;;;;;;;;;;;;;;;;5086113;28;19912;-66
2021/05/10 00:05:08;;;;;;;;;;;;;;;;;;5075645;28;19932;-66
2021/05/10 00:07:34;;;;;;;;;;;;;;;;;;5060559;28;19920;-67
2021/05/10 00:09:59;;;;;;;;;;;;;;;;;;5061517;28;19920;-70
2021/05/10 00:12:24;;;;;;;;;;;;;;;;;;5062126;28;20065;-66
2021/05/10 00:14:50;;;;;;;;;;;;;;;;;;5049751;28;19912;-64
2021/05/10 00:17:15;;;;;;;;;;;;;;;;;;5064080;28;19924;-64
2021/05/10 00:19:41;;;;;;;;;;;;;;;;;;5062362;28;19916;-64
2021/05/10 00:22:06;;;;;;;;;;;;;;;;;;5060639;28;19920;-65
2021/05/10 00:24:31;;;;;;;;;;;;;;;;;;5063565;28;19921;-67
2021/05/10 00:26:57;;;;;;;;;;;;;;;;;;5060919;28;19987;-66
2021/05/10 00:29:22;;;;;;;;;;;;;;;;;;5063956;28;19921;-66
2021/05/10 00:31:47;;;;;;;;;;;;;;;;;;5057682;28;20015;-66
2021/05/10 00:34:13;;;;;;;;;;;;;;;;;;5058028;28;20262;-67
2021/05/10 00:36:38;;;;;;;;;;;;;;;;;;5059948;28;19920;-66
2021/05/10 00:39:04;;;;;;;;;;;;;;;;;;5064141;28;19995;-66
2021/05/10 00:41:29;;;;;;;;;;;;;;;;;;5064471;28;19912;-67
2021/05/10 00:43:54;;;;;;;;;;;;;;;;;;5058437;28;20471;-67
2021/05/10 00:46:20;;;;;;;;;;;;;;;;;;5056332;28;19931;-67
2021/05/10 00:48:45;;;;;;;;;;;;;;;;;;5060435;28;20242;-66
2021/05/10 00:51:10;;;;;;;;;;;;;;;;;;5058896;28;20301;-67
2021/05/10 00:53:36;;;;;;;;;;;;;;;;;;5061881;28;19944;-62
2021/05/10 00:56:01;;;;;;;;;;;;;;;;;;5057532;28;19921;-62
2021/05/10 00:58:27;;;;;;;;;;;;;;;;;;5064173;28;19982;-62
2021/05/10 01:00:52;;;;;;;;;;;;;;;;;;5062939;28;20008;-62
2021/05/10 01:03:17;;;;;;;;;;;;;;;;;;5060868;28;19916;-63
2021/05/10 01:05:44;;;;;;;;;;;;;;;;;;5079285;28;19919;-62
2021/05/10 01:08:10;;;;;;;;;;;;;;;;;;5087630;28;19926;-60
2021/05/10 01:10:35;;;;;;;;;;;;;;;;;;5085703;28;19912;-61
2021/05/10 01:13:01;;;;;;;;;;;;;;;;;;5085799;28;19920;-61
2021/05/10 01:15:26;;;;;;;;;;;;;;;;;;5104923;28;19912;-62
2021/05/10 01:17:52;;;;;;;;;;;;;;;;;;5094170;28;19934;-63
2021/05/10 01:20:17;;;;;;;;;;;;;;;;;;5084324;28;20020;-63
2021/05/10 01:22:43;;;;;;;;;;;;;;;;;;5089365;28;19916;-67
2021/05/10 01:25:08;;;;;;;;;;;;;;;;;;5086000;28;19924;-64
2021/05/10 01:27:33;;;;;;;;;;;;;;;;;;5088019;28;19963;-66
2021/05/10 01:29:59;;;;;;;;;;;;;;;;;;5086344;28;19916;-66
2021/05/10 01:32:24;;;;;;;;;;;;;;;;;;5089362;28;19916;-66
2021/05/10 01:34:49;;;;;;;;;;;;;;;;;;5086358;28;20003;-66
2021/05/10 01:37:15;;;;;;;;;;;;;;;;;;5089663;28;19938;-65
2021/05/10 01:39:40;;;;;;;;;;;;;;;;;;5105373;28;19920;-68
2021/05/10 01:42:06;;;;;;;;;;;;;;;;;;5091372;28;20579;-63
2021/05/10 01:44:31;;;;;;;;;;;;;;;;;;5087993;28;19927;-67
2021/05/10 01:46:57;;;;;;;;;;;;;;;;;;5106500;28;20317;-68
2021/05/10 01:49:23;;;;;;;;;;;;;;;;;;5090830;28;19972;-69
2021/05/10 01:51:49;;;;;;;;;;;;;;;;;;5104654;28;20265;-69
2021/05/10 01:54:14;;;;;;;;;;;;;;;;;;5088645;28;19974;-63
2021/05/10 01:56:40;;;;;;;;;;;;;;;;;;5092080;28;20004;-64
2021/05/10 01:59:05;;;;;;;;;;;;;;;;;;5090565;28;19926;-70
2021/05/10 02:01:30;;;;;;;;;;;;;;;;;;5091601;28;19927;-68
2021/05/10 02:03:56;;;;;;;;;;;;;;;;;;5090866;28;20227;-69
2021/05/10 02:06:21;;;;;;;;;;;;;;;;;;5098864;28;20023;-74
2021/05/10 02:08:47;;;;;;;;;;;;;;;;;;5096072;28;19915;-71
2021/05/10 02:11:12;;;;;;;;;;;;;;;;;;5091519;28;20475;-68
2021/05/10 02:13:37;;;;;;;;;;;;;;;;;;5092364;28;20055;-70
2021/05/10 02:16:03;;;;;;;;;;;;;;;;;;5091251;28;19912;-62
2021/05/10 02:18:28;;;;;;;;;;;;;;;;;;5094514;28;20015;-62
2021/05/10 02:20:54;;;;;;;;;;;;;;;;;;5094518;28;19912;-62
2021/05/10 02:23:19;;;;;;;;;;;;;;;;;;5103614;28;19912;-63
2021/05/10 02:25:45;;;;;;;;;;;;;;;;;;5076279;28;19954;-63
2021/05/10 02:28:10;;;;;;;;;;;;;;;;;;5097545;28;20000;-62
2021/05/10 02:30:35;;;;;;;;;;;;;;;;;;5097925;28;19920;-62
2021/05/10 02:33:01;;;;;;;;;;;;;;;;;;5098977;28;19926;-62
2021/05/10 02:35:26;;;;;;;;;;;;;;;;;;5090202;28;19968;-63
2021/05/10 02:37:51;;;;;;;;;;;;;;;;;;5096655;28;20350;-63
2021/05/10 02:40:17;;;;;;;;;;;;;;;;;;5099051;28;19973;-62
2021/05/10 02:42:42;;;;;;;;;;;;;;;;;;5103469;28;20254;-62
2021/05/10 02:45:08;;;;;;;;;;;;;;;;;;5093633;28;19996;-63
2021/05/10 02:47:33;;;;;;;;;;;;;;;;;;5093464;28;19916;-63
2021/05/10 02:49:59;;;;;;;;;;;;;;;;;;5091638;28;19920;-63
2021/05/10 02:52:24;;;;;;;;;;;;;;;;;;5094750;28;20338;-62
2021/05/10 02:54:49;;;;;;;;;;;;;;;;;;5103274;28;19920;-62
2021/05/10 02:57:15;;;;;;;;;;;;;;;;;;5091175;28;19981;-61
2021/05/10 02:59:40;;;;;;;;;;;;;;;;;;5095616;28;19917;-61
2021/05/10 03:02:05;;;;;;;;;;;;;;;;;;5098165;28;20227;-61
2021/05/10 03:04:31;;;;;;;;;;;;;;;;;;5100113;28;19931;-61
2021/05/10 03:06:56;;;;;;;;;;;;;;;;;;5092908;28;19924;-61
2021/05/10 03:09:22;;;;;;;;;;;;;;;;;;5096210;28;19916;-61
2021/05/10 03:11:47;;;;;;;;;;;;;;;;;;5090764;28;20025;-62
2021/05/10 03:14:12;;;;;;;;;;;;;;;;;;5087218;28;19920;-62
2021/05/10 03:16:38;;;;;;;;;;;;;;;;;;5090764;28;19916;-62
2021/05/10 03:19:08;;;;;;;;;;;;;;;;;;5092131;28;20383;-62
2021/05/10 03:21:33;;;;;;;;;;;;;;;;;;5091457;28;19920;-61
2021/05/10 03:23:59;;;;;;;;;;;;;;;;;;5091180;28;19927;-61
2021/05/10 03:26:24;;;;;;;;;;;;;;;;;;5107465;28;19975;-60
2021/05/10 03:28:49;;;;;;;;;;;;;;;;;;5092795;28;20325;-61
2021/05/10 03:31:15;;;;;;;;;;;;;;;;;;5089642;28;19916;-61
2021/05/10 03:33:40;;;;;;;;;;;;;;;;;;5091678;28;20360;-60
2021/05/10 03:36:06;;;;;;;;;;;;;;;;;;5092022;28;19920;-60
2021/05/10 03:38:31;;;;;;;;;;;;;;;;;;5089292;28;20314;-60
2021/05/10 03:40:56;;;;;;;;;;;;;;;;;;5090647;28;20459;-60
2021/05/10 03:43:22;;;;;;;;;;;;;;;;;;5094443;28;19912;-60
2021/05/10 03:45:47;;;;;;;;;;;;;;;;;;5109264;28;20296;-60
2021/05/10 03:48:12;;;;;;;;;;;;;;;;;;5093004;28;20423;-60
2021/05/10 03:50:38;;;;;;;;;;;;;;;;;;5093162;28;19966;-60
2021/05/10 03:53:03;;;;;;;;;;;;;;;;;;5092410;28;20338;-60
2021/05/10 03:55:29;;;;;;;;;;;;;;;;;;5090782;28;19924;-60
2021/05/10 03:57:56;;;;;;;;;;;;;;;;;;5090737;28;19916;-60
2021/05/10 04:00:21;;;;;;;;;;;;;;;;;;5096125;28;19912;-62
2021/05/10 04:02:47;;;;;;;;;;;;;;;;;;5090178;28;20015;-60
2021/05/10 04:15:45;;;;;;;;;;;;;;;;;;5094320;28;19993;-60
2021/05/10 04:18:10;;;;;;;;;;;;;;;;;;5093601;28;19916;-59
2021/05/10 04:20:35;;;;;;;;;;;;;;;;;;5092558;28;20310;-60
2021/05/10 04:23:01;;;;;;;;;;;;;;;;;;5092822;28;19920;-60
2021/05/10 04:25:26;;;;;;;;;;;;;;;;;;5094086;28;20227;-60
2021/05/10 04:27:52;;;;;;;;;;;;;;;;;;5093799;28;19966;-60
2021/05/10 04:30:17;;;;;;;;;;;;;;;;;;5093184;28;20047;-60
2021/05/10 04:32:43;;;;;;;;;;;;;;;;;;5087865;28;19916;-60
2021/05/10 04:35:08;;;;;;;;;;;;;;;;;;5091703;28;19934;-64
2021/05/10 04:37:33;;;;;;;;;;;;;;;;;;5092731;28;19941;-58
2021/05/10 04:39:59;;;;;;;;;;;;;;;;;;5094460;28;19912;-58
2021/05/10 04:42:24;;;;;;;;;;;;;;;;;;5094173;28;19936;-58
2021/05/10 04:44:50;;;;;;;;;;;;;;;;;;5093076;28;19920;-59
2021/05/10 04:47:15;;;;;;;;;;;;;;;;;;5093488;28;20269;-58
2021/05/10 04:49:41;;;;;;;;;;;;;;;;;;5094221;28;20051;-58
2021/05/10 04:52:06;;;;;;;;;;;;;;;;;;5094572;28;19912;-58
2021/05/10 04:54:32;;;;;;;;;;;;;;;;;;5093994;28;19919;-59
2021/05/10 04:56:57;;;;;;;;;;;;;;;;;;5090219;28;20082;-59
2021/05/10 04:59:23;;;;;;;;;;;;;;;;;;5091406;28;19912;-59
2021/05/10 05:01:48;;;;;;;;;;;;;;;;;;5089416;28;20061;-59
2021/05/10 05:04:13;;;;;;;;;;;;;;;;;;5090437;28;19919;-58
2021/05/10 05:06:39;;;;;;;;;;;;;;;;;;5093655;28;19924;-59
2021/05/10 05:09:04;;;;;;;;;;;;;;;;;;5090339;28;19912;-59
2021/05/10 05:11:29;;;;;;;;;;;;;;;;;;5089422;28;19927;-59
2021/05/10 05:13:55;;;;;;;;;;;;;;;;;;5108540;28;19928;-59
2021/05/10 05:16:20;;;;;;;;;;;;;;;;;;5092467;28;21087;-61
2021/05/10 05:18:46;;;;;;;;;;;;;;;;;;5093135;28;19916;-59
2021/05/10 05:21:11;;;;;;;;;;;;;;;;;;5091661;28;19923;-59
2021/05/10 05:23:36;;;;;;;;;;;;;;;;;;5091604;28;19923;-60
2021/05/10 05:26:02;;;;;;;;;;;;;;;;;;5089804;28;19944;-60
2021/05/10 05:28:27;;;;;;;;;;;;;;;;;;5092937;28;19920;-60
2021/05/10 05:30:53;;;;;;;;;;;;;;;;;;5093941;28;19916;-60
2021/05/10 05:33:18;;;;;;;;;;;;;;;;;;5094826;28;19923;-60
2021/05/10 05:35:44;;;;;;;;;;;;;;;;;;5092539;28;20382;-60
2021/05/10 05:38:10;;;;;;;;;;;;;;;;;;5092404;28;19995;-60
2021/05/10 05:40:36;;;;;;;;;;;;;;;;;;5093693;28;19954;-60
2021/05/10 05:43:01;;;;;;;;;;;;;;;;;;5095575;28;20341;-61
2021/05/10 05:45:27;;;;;;;;;;;;;;;;;;5095021;28;20359;-61
2021/05/10 05:47:52;;;;;;;;;;;;;;;;;;5098808;28;19916;-61
2021/05/10 05:50:17;;;;;;;;;;;;;;;;;;5099823;28;19923;-61
2021/05/10 05:52:44;;;;;;;;;;;;;;;;;;5098356;28;19912;-61
2021/05/10 05:55:09;;;;;;;;;;;;;;;;;;5099511;28;20368;-61
2021/05/10 05:57:35;;;;;;;;;;;;;;;;;;5104805;28;19999;-60
2021/05/10 06:00:02;;;;;;;;;;;;;;;;;;5108430;28;19916;-60
2021/05/10 06:02:27;;;;;;;;;;;;;;;;;;5101081;28;19916;-61
2021/05/10 06:04:53;;;;;;;;;;;;;;;;;;5117841;28;20003;-61
2021/05/10 06:07:18;;;;;;;;;;;;;;;;;;5116397;28;19916;-61
2021/05/10 06:09:43;;;;;;;;;;;;;;;;;;5100053;28;19912;-61
2021/05/10 06:12:09;;;;;;;;;;;;;;;;;;5101306;28;19966;-60
2021/05/10 06:14:34;;;;;;;;;;;;;;;;;;5101045;28;20251;-60
2021/05/10 06:17:00;;;;;;;;;;;;;;;;;;5097940;28;19912;-61
2021/05/10 06:19:25;;;;;;;;;;;;;;;;;;5098979;28;19925;-60
2021/05/10 06:21:50;;;;;;;;;;;;;;;;;;5114503;28;19912;-61
2021/05/10 06:24:16;;;;;;;;;;;;;;;;;;5101478;28;20467;-61
2021/05/10 06:26:44;;;;;;;;;;;;;;;;;;5098870;28;19923;-61
2021/05/10 06:29:09;;;;;;;;;;;;;;;;;;5098499;28;20360;-61
2021/05/10 06:31:34;;;;;;;;;;;;;;;;;;5095010;28;19911;-61
2021/05/10 06:34:02;;;;;;;;;;;;;;;;;;5099234;28;19943;-61
2021/05/10 06:36:28;;;;;;;;;;;;;;;;;;5095926;28;20243;-61
2021/05/10 06:38:53;;;;;;;;;;;;;;;;;;5100589;28;20002;-61
2021/05/10 06:41:18;;;;;;;;;;;;;;;;;;5098798;28;19916;-61
2021/05/10 06:43:44;;;;;;;;;;;;;;;;;;5095520;28;20399;-62
2021/05/10 06:46:09;;;;;;;;;;;;;;;;;;5098622;28;19911;-62
2021/05/10 06:48:35;;;;;;;;;;;;;;;;;;5101928;28;19992;-62
2021/05/10 06:51:00;;;;;;;;;;;;;;;;;;5101588;28;20079;-61
2021/05/10 06:53:26;;;;;;;;;;;;;;;;;;5116429;28;19913;-61
2021/05/10 06:55:51;;;;;;;;;;;;;;;;;;5103232;28;19912;-61
2021/05/10 06:58:17;;;;;;;;;;;;;;;;;;5103078;28;19951;-61
2021/05/10 07:00:42;;;;;;;;;;;;;;;;;;5116786;28;19927;-61
2021/05/10 07:03:07;;;;;;;;;;;;;;;;;;5102408;28;19916;-61
2021/05/10 07:05:33;;;;;;;;;;;;;;;;;;5101185;28;19966;-61
2021/05/10 07:07:58;;;;;;;;;;;;;;;;;;5107036;28;19920;-61
2021/05/10 07:10:24;;;;;;;;;;;;;;;;;;5087543;28;20412;-61
2021/05/10 07:12:49;;;;;;;;;;;;;;;;;;5109126;28;20356;-61
2021/05/10 07:15:14;;;;;;;;;;;;;;;;;;5109354;28;19916;-61
2021/05/10 07:17:40;;;;;;;;;;;;;;;;;;5111856;28;19912;-61
2021/05/10 07:20:05;;;;;;;;;;;;;;;;;;5110587;28;19919;-61
2021/05/10 07:22:31;;;;;;;;;;;;;;;;;;5110813;28;20007;-60
2021/05/10 07:24:56;;;;;;;;;;;;;;;;;;5092245;28;19974;-61
2021/05/10 07:27:21;;;;;;;;;;;;;;;;;;5107868;28;20653;-61
2021/05/10 07:29:47;;;;;;;;;;;;;;;;;;5110411;28;19957;-60
2021/05/10 07:32:12;;;;;;;;;;;;;;;;;;5111204;28;20272;-60
2021/05/10 07:34:37;;;;;;;;;;;;;;;;;;5111220;28;19915;-61
2021/05/10 07:37:03;;;;;;;;;;;;;;;;;;5111957;28;20265;-60
2021/05/10 07:39:28;;;;;;;;;;;;;;;;;;5108730;28;19912;-60
2021/05/10 07:41:53;;;;;;;;;;;;;;;;;;5112543;28;19955;-61
2021/05/10 07:44:19;;;;;;;;;;;;;;;;;;5096655;28;20402;-61
2021/05/10 07:46:44;;;;;;;;;;;;;;;;;;5108875;28;19912;-60
2021/05/10 07:49:10;;;;;;;;;;;;;;;;;;5110593;28;19913;-60
2021/05/10 07:51:35;;;;;;;;;;;;;;;;;;5111409;28;19927;-61
2021/05/10 07:54:00;;;;;;;;;;;;;;;;;;5112535;28;19939;-60
2021/05/10 07:56:26;;;;;;;;;;;;;;;;;;5115355;28;19922;-60
2021/05/10 07:58:52;;;;;;;;;;;;;;;;;;5117571;28;20368;-62
2021/05/10 08:01:17;;;;;;;;;;;;;;;;;;5111901;28;20234;-61
2021/05/10 08:03:45;;;;;;;;;;;;;;;;;;5102522;28;20010;-61
2021/05/10 08:06:10;;;;;;;;;;;;;;;;;;5109254;28;20253;-61
2021/05/10 08:08:36;;;;;;;;;;;;;;;;;;5094469;28;19927;-61
2021/05/10 08:11:01;;;;;;;;;;;;;;;;;;5112375;28;19916;-61
2021/05/10 08:13:27;;;;;;;;;;;;;;;;;;5097178;28;19912;-61
2021/05/10 08:15:52;;;;;;;;;;;;;;;;;;5113207;28;19985;-60
2021/05/10 08:18:18;;;;;;;;;;;;;;;;;;5098857;28;19955;-61
2021/05/10 08:20:43;;;;;;;;;;;;;;;;;;5099773;28;19941;-61
2021/05/10 08:23:08;;;;;;;;;;;;;;;;;;5099438;28;19913;-60
2021/05/10 08:25:34;;;;;;;;;;;;;;;;;;5095567;28;19918;-60
2021/05/10 08:27:59;;;;;;;;;;;;;;;;;;5100347;28;20357;-61
2021/05/10 08:30:25;;;;;;;;;;;;;;;;;;5096754;28;20369;-61
2021/05/10 08:32:51;;;;;;;;;;;;;;;;;;5095813;28;19920;-61
2021/05/10 08:35:16;;;;;;;;;;;;;;;;;;5096524;28;19916;-61
2021/05/10 08:37:42;;;;;;;;;;;;;;;;;;5095454;28;19912;-61
2021/05/10 08:40:07;;;;;;;;;;;;;;;;;;5098832;28;20344;-61
2021/05/10 08:42:33;;;;;;;;;;;;;;;;;;5097474;28;19912;-61
2021/05/10 08:44:59;;;;;;;;;;;;;;;;;;5096384;28;20261;-61
2021/05/10 08:47:35;;;;;;;;;;;;;;;;;;5098393;28;19923;-62
2021/05/10 08:50:01;;;;;;;;;;;;;;;;;;5113658;28;19920;-62
2021/05/10 08:52:26;;;;;;;;;;;;;;;;;;5095331;28;20361;-62
2021/05/10 08:54:51;;;;;;;;;;;;;;;;;;5096221;28;19912;-61
2021/05/10 08:57:17;;;;;;;;;;;;;;;;;;5103268;28;19954;-60
2021/05/10 08:59:42;;;;;;;;;;;;;;;;;;5118173;28;19915;-60
2021/05/10 09:02:08;;;;;;;;;;;;;;;;;;5100264;28;19957;-60
2021/05/10 09:04:33;;;;;;;;;;;;;;;;;;5096236;28;20006;-60
2021/05/10 09:06:58;;;;;;;;;;;;;;;;;;5098222;28;20377;-60
2021/05/10 09:09:24;;;;;;;;;;;;;;;;;;5101796;28;19949;-60
2021/05/10 09:11:49;;;;;;;;;;;;;;;;;;5100749;28;20334;-60
2021/05/10 09:14:15;;;;;;;;;;;;;;;;;;5098013;28;20011;-60
2021/05/10 09:16:40;;;;;;;;;;;;;;;;;;5099069;28;19920;-60
2021/05/10 09:19:05;;;;;;;;;;;;;;;;;;5101512;28;19923;-60
2021/05/10 09:21:31;;;;;;;;;;;;;;;;;;5100745;28;20246;-60
2021/05/10 09:23:57;;;;;;;;;;;;;;;;;;5100728;28;19947;-60
2021/05/10 09:26:22;;;;;;;;;;;;;;;;;;5099501;28;19939;-60
2021/05/10 09:28:47;;;;;;;;;;;;;;;;;;5101443;28;19920;-60
2021/05/10 09:31:13;;;;;;;;;;;;;;;;;;5099463;28;19926;-60
2021/05/10 09:33:38;;;;;;;;;;;;;;;;;;5097165;28;20373;-60
2021/05/10 09:36:07;;;;;;;;;;;;;;;;;;5101285;28;19912;-60
2021/05/10 09:38:33;;;;;;;;;;;;;;;;;;5096267;28;19996;-60
2021/05/10 09:40:59;;;;;;;;;;;;;;;;;;5095956;28;19920;-61
2021/05/10 09:43:24;;;;;;;;;;;;;;;;;;5095257;28;19923;-61
2021/05/10 09:45:50;;;;;;;;;;;;;;;;;;5093254;28;19912;-61
2021/05/10 09:48:16;;;;;;;;;;;;;;;;;;5089381;28;19970;-61
2021/05/10 09:50:41;;;;;;;;;;;;;;;;;;5094107;28;19970;-61
2021/05/10 09:53:07;;;;;;;;;;;;;;;;;;5093377;28;19912;-66
2021/05/10 09:55:32;;;;;;;;;;;;;;;;;;5093992;28;20376;-61
2021/05/10 09:57:58;;;;;;;;;;;;;;;;;;5094450;28;19943;-61
2021/05/10 10:00:23;;;;;;;;;;;;;;;;;;5097931;28;19912;-61
2021/05/10 10:02:48;;;;;;;;;;;;;;;;;;5099304;28;19923;-61
2021/05/10 10:05:14;;;;;;;;;;;;;;;;;;5098689;28;20764;-61
2021/05/10 10:07:39;;;;;;;;;;;;;;;;;;5102308;28;19916;-61
2021/05/10 10:10:04;;;;;;;;;;;;;;;;;;5100240;28;19915;-61
2021/05/10 10:12:30;;;;;;;;;;;;;;;;;;5099990;28;20010;-61
2021/05/10 10:14:55;;;;;;;;;;;;;;;;;;5101618;28;19912;-61
2021/05/10 10:17:20;;;;;;;;;;;;;;;;;;5102445;28;19993;-61
2021/05/10 10:19:46;;;;;;;;;;;;;;;;;;5102204;28;20249;-61
2021/05/10 10:22:11;;;;;;;;;;;;;;;;;;5103438;28;19919;-61
2021/05/10 10:24:37;;;;;;;;;;;;;;;;;;5104171;28;20346;-61
2021/05/10 10:27:02;;;;;;;;;;;;;;;;;;5101977;28;19908;-61
2021/05/10 10:29:29;;;;;;;;;;;;;;;;;;5104499;28;20389;-60
2021/05/10 10:31:54;;;;;;;;;;;;;;;;;;5102471;28;19919;-60
2021/05/10 10:34:20;;;;;;;;;;;;;;;;;;5102198;28;19916;-60
2021/05/10 10:36:46;;;;;;;;;;;;;;;;;;5103625;28;20002;-60
2021/05/10 10:39:11;;;;;;;;;;;;;;;;;;5100392;28;19916;-60
2021/05/10 10:41:37;;;;;;;;;;;;;;;;;;5098106;28;19995;-61
2021/05/10 10:44:02;;;;;;;;;;;;;;;;;;5103295;28;19912;-61
2021/05/10 10:46:28;;;;;;;;;;;;;;;;;;5107513;28;19912;-61
2021/05/10 10:48:54;;;;;;;;;;;;;;;;;;5106722;28;19927;-60
2021/05/10 10:51:19;;;;;;;;;;;;;;;;;;5107001;28;19907;-60
2021/05/10 10:53:45;;;;;;;;;;;;;;;;;;5108310;28;19961;-60
2021/05/10 10:56:10;;;;;;;;;;;;;;;;;;5102509;28;20333;-60
2021/05/10 10:58:37;;;;;;;;;;;;;;;;;;5103727;28;19916;-60
2021/05/10 11:01:05;;;;;;;;;;;;;;;;;;5104193;28;19923;-60
2021/05/10 11:03:31;;;;;;;;;;;;;;;;;;5103650;28;20346;-60
2021/05/10 11:05:56;;;;;;;;;;;;;;;;;;5094792;28;19963;-60
2021/05/10 11:08:22;;;;;;;;;;;;;;;;;;5094457;28;20005;-61
2021/05/10 11:10:48;;;;;;;;;;;;;;;;;;5095896;28;19966;-60
2021/05/10 11:13:14;;;;;;;;;;;;;;;;;;5094964;28;20380;-60
2021/05/10 11:15:41;;;;;;;;;;;;;;;;;;5096389;28;19912;-61
2021/05/10 11:18:07;;;;;;;;;;;;;;;;;;5095120;28;19973;-60
2021/05/10 11:20:32;;;;;;;;;;;;;;;;;;5094738;28;19920;-60
2021/05/10 11:22:57;;;;;;;;;;;;;;;;;;5091831;28;19940;-60
2021/05/10 11:25:23;;;;;;;;;;;;;;;;;;5094151;28;19913;-60
2021/05/10 11:27:48;;;;;;;;;;;;;;;;;;5093354;28;19946;-60
2021/05/10 11:30:13;;;;;;;;;;;;;;;;;;5095684;28;19973;-62
2021/05/10 11:32:39;;;;;;;;;;;;;;;;;;5093553;28;19927;-60
2021/05/10 11:35:04;;;;;;;;;;;;;;;;;;5094459;28;20361;-61
2021/05/10 11:37:30;;;;;;;;;;;;;;;;;;5093069;28;19944;-60
2021/05/10 11:39:55;;;;;;;;;;;;;;;;;;5095170;28;20338;-61
2021/05/10 11:42:20;;;;;;;;;;;;;;;;;;5093710;28;19919;-61
2021/05/10 11:44:46;;;;;;;;;;;;;;;;;;5093837;28;19923;-61
2021/05/10 11:47:11;;;;;;;;;;;;;;;;;;5092725;28;19956;-61
2021/05/10 11:49:36;;;;;;;;;;;;;;;;;;5095911;28;19914;-60
2021/05/10 11:52:02;;;;;;;;;;;;;;;;;;5092466;28;20357;-61
2021/05/10 11:54:29;;;;;;;;;;;;;;;;;;5093972;28;19955;-59
2021/05/10 11:56:56;;;;;;;;;;;;;;;;;;5094275;28;19979;-61
2021/05/10 12:01:50;;;;;;;;;;;;;;;;;;5092636;28;19970;-61
2021/05/10 12:04:15;;;;;;;;;;;;;;;;;;5097664;28;19912;-59
2021/05/10 12:06:41;;;;;;;;;;;;;;;;;;5108713;28;20553;-61
2021/05/10 12:09:06;;;;;;;;;;;;;;;;;;5106698;28;19927;-61
2021/05/10 12:11:31;;;;;;;;;;;;;;;;;;5104959;28;19939;-61
2021/05/10 12:13:57;;;;;;;;;;;;;;;;;;5100664;28;19919;-61
2021/05/10 12:16:22;;;;;;;;;;;;;;;;;;5103846;28;19912;-61
2021/05/10 12:18:48;;;;;;;;;;;;;;;;;;5102344;28;19995;-60
2021/05/10 12:21:13;;;;;;;;;;;;;;;;;;5104197;28;19912;-60
2021/05/10 12:23:38;;;;;;;;;;;;;;;;;;5103842;28;19922;-60
2021/05/10 12:26:04;;;;;;;;;;;;;;;;;;5103934;28;19918;-60
2021/05/10 12:28:29;;;;;;;;;;;;;;;;;;5103417;28;19916;-60
2021/05/10 12:30:56;;;;;;;;;;;;;;;;;;5102571;28;20006;-60
2021/05/10 12:33:22;;;;;;;;;;;;;;;;;;5103207;28;19911;-60
2021/05/10 12:35:47;;;;;;;;;;;;;;;;;;5101881;28;19924;-60
2021/05/10 12:38:13;;;;;;;;;;;;;;;;;;5101620;28;19943;-60
2021/05/10 12:40:38;;;;;;;;;;;;;;;;;;5101870;28;19922;-60
2021/05/10 12:43:03;;;;;;;;;;;;;;;;;;5104867;28;20694;-59
2021/05/10 12:45:29;;;;;;;;;;;;;;;;;;5101805;28;20276;-60
2021/05/10 12:47:56;;;;;;;;;;;;;;;;;;5102827;28;19939;-60
2021/05/10 12:50:21;;;;;;;;;;;;;;;;;;5101858;28;19912;-60
2021/05/10 12:52:47;;;;;;;;;;;;;;;;;;5104184;28;20006;-60
2021/05/10 12:55:12;;;;;;;;;;;;;;;;;;5104697;28;20303;-61
2021/05/10 12:57:40;;;;;;;;;;;;;;;;;;5105115;28;19912;-60
2021/05/10 13:00:05;;;;;;;;;;;;;;;;;;5103959;28;19911;-60
2021/05/10 13:02:31;;;;;;;;;;;;;;;;;;5105149;28;20368;-60
2021/05/10 13:04:56;;;;;;;;;;;;;;;;;;5103706;28;19920;-59
2021/05/10 13:07:21;;;;;;;;;;;;;;;;;;5104180;28;19916;-59
2021/05/10 13:09:47;;;;;;;;;;;;;;;;;;5103099;28;19919;-60
2021/05/10 13:12:13;;;;;;;;;;;;;;;;;;5102899;28;20312;-60
2021/05/10 13:14:43;;;;;;;;;;;;;;;;;;5102405;28;19924;-60
2021/05/10 13:17:15;;;;;;;;;;;;;;;;;;5101072;28;20341;-59
2021/05/10 13:30:58;;;;;;;;;;;;;;;;;;5098916;28;19975;-60
2021/05/10 13:33:09;;;;;;;;;;;;;;;;;;5099651;28;20303;-61
2021/05/10 13:35:36;;;;;;;;;;;;;;;;;;5101406;28;19912;-61
2021/05/10 13:38:02;;;;;;;;;;;;;;;;;;5099800;28;19912;-61
2021/05/10 13:40:27;;;;;;;;;;;;;;;;;;5103710;28;19912;-60
2021/05/10 13:42:57;;;;;;;;;;;;;;;;;;5101119;28;19964;-61
2021/05/10 13:45:22;;;;;;;;;;;;;;;;;;5102135;28;20268;-61
2021/05/10 13:47:48;;;;;;;;;;;;;;;;;;5099688;28;19920;-60
2021/05/10 13:50:13;;;;;;;;;;;;;;;;;;5097994;28;19923;-61
2021/05/10 13:52:38;;;;;;;;;;;;;;;;;;5102817;28;19916;-60
2021/05/10 13:55:04;;;;;;;;;;;;;;;;;;5101630;28;20369;-60
2021/05/10 13:57:29;;;;;;;;;;;;;;;;;;5103782;28;19923;-60
2021/05/10 13:59:55;;;;;;;;;;;;;;;;;;5101860;28;19912;-61
2021/05/10 14:02:21;;;;;;;;;;;;;;;;;;5101779;28;19920;-61
2021/05/10 14:04:47;;;;;;;;;;;;;;;;;;5104838;28;19911;-61
2021/05/10 14:07:12;;;;;;;;;;;;;;;;;;5107238;28;19916;-61
2021/05/10 14:09:38;;;;;;;;;;;;;;;;;;5114429;28;19944;-62
2021/05/10 14:12:03;;;;;;;;;;;;;;;;;;5102176;28;19921;-61
2021/05/10 14:14:29;;;;;;;;;;;;;;;;;;5101945;28;19927;-61
2021/05/10 14:16:54;;;;;;;;;;;;;;;;;;5104734;28;20014;-61
2021/05/10 14:19:21;;;;;;;;;;;;;;;;;;5102196;28;19916;-61
2021/05/10 14:21:59;;;;;;;;;;;;;;;;;;5106790;28;19912;-61
2021/05/10 14:24:25;;;;;;;;;;;;;;;;;;5103540;28;19986;-61
2021/05/10 14:26:50;;;;;;;;;;;;;;;;;;5107330;28;19962;-61
2021/05/10 14:29:15;;;;;;;;;;;;;;;;;;5106189;28;19916;-61
2021/05/10 14:31:41;;;;;;;;;;;;;;;;;;5101737;28;19916;-61
2021/05/10 14:34:06;;;;;;;;;;;;;;;;;;5104555;28;19920;-61
2021/05/10 14:36:33;;;;;;;;;;;;;;;;;;5105982;28;19968;-61
2021/05/10 14:38:59;;;;;;;;;;;;;;;;;;5104296;28;19919;-61
2021/05/10 14:41:24;;;;;;;;;;;;;;;;;;5101103;28;19919;-61
2021/05/10 14:43:50;;;;;;;;;;;;;;;;;;5106265;28;19912;-60
2021/05/10 14:46:15;;;;;;;;;;;;;;;;;;5106231;28;20350;-60
2021/05/10 14:48:40;;;;;;;;;;;;;;;;;;5104051;28;20345;-61
2021/05/10 14:51:06;;;;;;;;;;;;;;;;;;5103862;28;19924;-61
2021/05/10 14:53:31;;;;;;;;;;;;;;;;;;5104830;28;19916;-61
2021/05/10 14:55:57;;;;;;;;;;;;;;;;;;5106397;28;19924;-61
2021/05/10 14:58:22;;;;;;;;;;;;;;;;;;5104536;28;20328;-62
2021/05/10 15:00:47;;;;;;;;;;;;;;;;;;5102287;28;20448;-61
2021/05/10 15:03:13;;;;;;;;;;;;;;;;;;5103219;28;19919;-62
2021/05/10 15:05:38;;;;;;;;;;;;;;;;;;5102623;28;19930;-59
2021/05/10 15:08:04;;;;;;;;;;;;;;;;;;5107441;28;19923;-59
2021/05/10 15:10:29;;;;;;;;;;;;;;;;;;5096514;28;19923;-60
2021/05/10 15:12:54;;;;;;;;;;;;;;;;;;5099994;28;19912;-59
2021/05/10 15:15:20;;;;;;;;;;;;;;;;;;5107224;28;20306;-59
2021/05/10 15:17:45;;;;;;;;;;;;;;;;;;5108647;28;19920;-59
2021/05/10 15:20:11;;;;;;;;;;;;;;;;;;5105879;28;19998;-59
2021/05/10 15:22:36;;;;;;;;;;;;;;;;;;5107556;28;19916;-59
2021/05/10 15:25:01;;;;;;;;;;;;;;;;;;5102107;28;19991;-60
2021/05/10 15:27:27;;;;;;;;;;;;;;;;;;5105873;28;19920;-61
2021/05/10 15:29:52;;;;;;;;;;;;;;;;;;5107184;28;19912;-61
2021/05/10 15:32:18;;;;;;;;;;;;;;;;;;5105357;28;19960;-60
2021/05/10 15:34:43;;;;;;;;;;;;;;;;;;5106212;28;20273;-60
2021/05/10 15:37:09;;;;;;;;;;;;;;;;;;5109073;28;19916;-65
2021/05/10 15:39:34;;;;;;;;;;;;;;;;;;5096895;28;19907;-62
2021/05/10 15:41:59;;;;;;;;;;;;;;;;;;5106230;28;20022;-60
2021/05/10 15:44:25;;;;;;;;;;;;;;;;;;5106535;28;20345;-61
2021/05/10 15:46:50;;;;;;;;;;;;;;;;;;5104009;28;20364;-61
2021/05/10 15:49:16;;;;;;;;;;;;;;;;;;5100856;28;19920;-60
2021/05/10 15:51:41;;;;;;;;;;;;;;;;;;5104963;28;19912;-62
2021/05/10 15:54:06;;;;;;;;;;;;;;;;;;5107369;28;19919;-60
2021/05/10 15:56:33;;;;;;;;;;;;;;;;;;5105685;28;19966;-61
2021/05/10 15:58:58;;;;;;;;;;;;;;;;;;5107430;28;20325;-60
2021/05/10 16:01:24;;;;;;;;;;;;;;;;;;5106551;28;19935;-61
2021/05/10 16:03:50;;;;;;;;;;;;;;;;;;5106157;28;19958;-61
2021/05/10 16:06:15;;;;;;;;;;;;;;;;;;5098701;28;19982;-61
2021/05/10 16:08:40;;;;;;;;;;;;;;;;;;5098386;28;19965;-61
2021/05/10 16:11:06;;;;;;;;;;;;;;;;;;5112385;28;19927;-62
2021/05/10 16:13:31;;;;;;;;;;;;;;;;;;5099767;28;20329;-62
2021/05/10 16:15:57;;;;;;;;;;;;;;;;;;5105169;28;19916;-61
2021/05/10 16:18:22;;;;;;;;;;;;;;;;;;5101175;28;19911;-61
2021/05/10 16:20:48;;;;;;;;;;;;;;;;;;5095111;28;19927;-62
2021/05/10 16:23:14;;;;;;;;;;;;;;;;;;5085958;28;20056;-60
2021/05/10 16:25:39;;;;;;;;;;;;;;;;;;5092655;28;20380;-61
2021/05/10 16:28:05;;;;;;;;;;;;;;;;;;5091565;28;19928;-60
2021/05/10 16:30:30;;;;;;;;;;;;;;;;;;5091036;28;19918;-60
2021/05/10 16:32:56;;;;;;;;;;;;;;;;;;5086179;28;20464;-61
2021/05/10 16:35:22;;;;;;;;;;;;;;;;;;5091115;28;20353;-63
2021/05/10 16:37:47;;;;;;;;;;;;;;;;;;5088488;28;19912;-61
2021/05/10 16:40:13;;;;;;;;;;;;;;;;;;5092055;28;19912;-61
2021/05/10 16:42:39;;;;;;;;;;;;;;;;;;5088990;28;19924;-59
2021/05/10 16:45:04;;;;;;;;;;;;;;;;;;5092332;28;20025;-61
2021/05/10 16:47:32;;;;;;;;;;;;;;;;;;5106967;28;19916;-61
2021/05/10 16:49:57;;;;;;;;;;;;;;;;;;5093157;28;19920;-61
2021/05/10 16:52:23;;;;;;;;;;;;;;;;;;5092607;28;20265;-62
2021/05/10 16:54:48;;;;;;;;;;;;;;;;;;5090753;28;19929;-61
2021/05/10 16:57:14;;;;;;;;;;;;;;;;;;5092223;28;19912;-61